Decatur, TX (76234)

3:25 AM CDT on June 03, 2015 (GMT -0500)
South Reunion | | Change Station
CLOSE
Current Station
Personal Weather Station
Location: Decatur, TX
Elevation: 883 ft
Nearby Weather Stations
Active Advisory: Flood Warning

Elev 883 ft 33.19 °N, 97.60 °W | Updated 36 seconds ago

Haze
Haze
69.8 °F
Feels Like 69.8 °F
N
0.0
Wind Variable Wind from West
Gusts 0.0 mph

Today
High -- | Low -- °F
--% Chance of Precip.
Yesterday
High -- | Low -- °F
Precip. -- in
6:21 AM 8:35 PM
Waxing Gibbous, 99% visible
Pressure 29.93 in
Visibility 3.0 miles
Clouds Clear
Dew Point 67 °F
Humidity 91%
Rainfall 0.00 in
Snow Depth Not available.
UV 0.0 out of 12
Pollen 5.80 out of 12
Air Quality Not available.
Flu Activity Local Activity
METAR KLUD 030815Z AUTO 14007KT 3SM HZ CLR 21/16 A2993 RMK AO2 T02100162

More Conditions Fewer Conditions

Pressure 29.93 in
Visibility 3.0 miles
Clouds Clear
Dew Point 67 °F
Humidity 91%
Rainfall 0.00 in
Snow Depth Not available.
UV 0.0 out of 12
Pollen 5.80 out of 12
Air Quality Not available.
Flu Activity Local Activity
METAR KLUD 030815Z AUTO 14007KT 3SM HZ CLR 21/16 A2993 RMK AO2 T02100162

More Conditions Fewer Conditions

10-Day Weather Forecast

×

Almanac

Astronomy

Jun. 03, 2015 Rise Set
Actual Time
Civil Twilight
Nautical Twilight
Astronomical Twilight
Moon
Length of Visible Light
Length of Day
Tomorrow will be .
, % of the Moon is Illuminated

Today's Extremes

State Highs State Lows

Community

WunderPhotos

Upload Photos

1,826,194 photos uploaded!

WunderBlogs® & News

Nearby

Air Quality

  Air Quality AQ Index Pollutant
Not available.

Snow Depth

Station Depth Elevation

Earthquake Activity

City Distance Mag. Time & Date
Minimum magnitude displayed is 2.5.

Coastal Water Temperatures

Place Temperature

Stations

Nearby Weather Stations

Station Location Temp. Windchill Dew Point Humidity Wind Precip. Elev Updated Type
                   
Flood Warning
Statement as of 8:38 PM CDT on June 02, 2015

The Flood Warning continues for
the West Fork Trinity River near Boyd.
* At 0815 PM Tuesday the stage was 19.16 feet.
* Flood stage is 16 feet.
* Minor flooding is occurring and minor flooding is forecast.
* Forecast... the river will remain near 19 feet for the next few
days.


Lat... Lon 3319 9774 3300 9758 3305 9746 3316 9756